Time;durP1;ratioP1;P1;durP2;ratioP2;P2;SDS_P1;SDS_P2;PMS_P1;PMS_P2;Temp;Humidity;BMP_temperature;BMP_pressure;BME280_temperature;BME280_humidity;BME280_pressure;Samples;Min_cycle;Max_cycle;Signal;HPM_P1;HPM_P2
2021/10/20 00:01:42;;;;;;;21.45;9.65;;;10.50;99.90;;;;;;10378996;28;20050;-59
2021/10/20 00:06:44;;;;;;;19.02;8.55;;;10.50;99.90;;;;;;10376904;28;20492;-59
2021/10/20 00:11:45;;;;;;;21.77;9.85;;;10.50;99.90;;;;;;10379248;28;20050;-59
2021/10/20 00:16:48;;;;;;;27.98;9.80;;;10.50;99.90;;;;;;10378771;28;20057;-59
2021/10/20 00:21:49;;;;;;;26.77;10.68;;;10.50;99.90;;;;;;10374315;28;20116;-59
2021/10/20 00:26:51;;;;;;;20.90;9.85;;;10.40;99.90;;;;;;10374071;28;20096;-59
2021/10/20 00:31:53;;;;;;;29.27;10.02;;;10.40;99.90;;;;;;10377295;28;20053;-59
2021/10/20 00:36:54;;;;;;;21.02;10.13;;;10.40;99.90;;;;;;10371838;28;20050;-58
2021/10/20 00:41:56;;;;;;;20.17;8.88;;;10.30;99.90;;;;;;10369001;28;20081;-59
2021/10/20 00:46:57;;;;;;;21.25;9.40;;;10.30;99.90;;;;;;10373648;28;20139;-59
2021/10/20 00:51:59;;;;;;;21.90;8.60;;;10.30;99.90;;;;;;10376222;28;20062;-59
2021/10/20 00:57:01;;;;;;;18.60;7.90;;;10.40;99.90;;;;;;10375055;28;20754;-59
2021/10/20 01:02:03;;;;;;;20.70;7.70;;;10.40;99.90;;;;;;10371348;28;20495;-59
2021/10/20 01:07:07;;;;;;;14.85;7.55;;;10.40;99.90;;;;;;10374239;28;20128;-59
2021/10/20 01:12:09;;;;;;;19.52;6.82;;;10.40;99.90;;;;;;10373087;28;20117;-59
2021/10/20 01:17:11;;;;;;;12.07;6.80;;;10.40;99.90;;;;;;10358060;28;20046;-59
2021/10/20 01:22:13;;;;;;;14.02;7.38;;;10.40;99.90;;;;;;10373368;28;20133;-59
2021/10/20 01:27:14;;;;;;;13.50;6.95;;;10.40;99.90;;;;;;10374167;28;20096;-59
2021/10/20 01:32:16;;;;;;;15.23;7.55;;;10.40;99.90;;;;;;10373986;28;20049;-59
2021/10/20 01:37:19;;;;;;;17.17;7.45;;;10.30;99.90;;;;;;10372574;28;20081;-59
2021/10/20 01:42:21;;;;;;;19.92;7.05;;;10.30;99.90;;;;;;10378030;28;20073;-59
2021/10/20 01:47:23;;;;;;;14.20;7.47;;;10.20;99.90;;;;;;10371686;28;20480;-59
2021/10/20 01:52:25;;;;;;;13.05;6.28;;;10.20;99.90;;;;;;10373630;28;20130;-58
2021/10/20 01:57:26;;;;;;;14.45;6.85;;;10.10;99.90;;;;;;10371066;28;20565;-59
2021/10/20 02:02:28;;;;;;;14.00;6.05;;;10.10;99.90;;;;;;10370900;28;20045;-60
2021/10/20 02:07:30;;;;;;;11.45;6.13;;;10.20;99.90;;;;;;10376235;28;20042;-59
2021/10/20 02:12:32;;;;;;;14.20;6.13;;;10.20;99.90;;;;;;10368838;28;20120;-59
2021/10/20 02:17:33;;;;;;;16.35;6.43;;;10.20;99.90;;;;;;10371176;28;20484;-59
2021/10/20 02:22:35;;;;;;;18.90;6.30;;;10.20;99.90;;;;;;10372183;28;20057;-60
2021/10/20 02:27:38;;;;;;;14.70;6.55;;;10.20;99.90;;;;;;10361599;28;20104;-59
2021/10/20 02:32:40;;;;;;;8.02;4.93;;;10.30;99.90;;;;;;10372226;28;20550;-59
2021/10/20 02:37:44;;;;;;;12.30;5.43;;;10.30;99.90;;;;;;10370714;28;20077;-59
2021/10/20 02:42:46;;;;;;;9.80;4.82;;;10.40;99.90;;;;;;10365525;28;20069;-59
2021/10/20 02:47:48;;;;;;;10.02;5.40;;;10.50;99.90;;;;;;10366123;28;20503;-59
2021/10/20 02:52:50;;;;;;;11.60;4.43;;;10.60;99.90;;;;;;10372853;28;20103;-59
2021/10/20 02:57:52;;;;;;;15.60;5.03;;;10.60;99.90;;;;;;10376566;28;20049;-59
2021/10/20 03:02:53;;;;;;;8.65;4.65;;;10.70;99.90;;;;;;10372587;28;20057;-59
2021/10/20 03:07:56;;;;;;;8.18;4.32;;;10.70;99.90;;;;;;10371473;28;20049;-59
2021/10/20 03:12:58;;;;;;;8.20;4.68;;;10.70;99.90;;;;;;10369791;28;20057;-59
2021/10/20 03:17:59;;;;;;;11.32;4.75;;;10.70;99.90;;;;;;10373034;28;20054;-59
2021/10/20 03:23:01;;;;;;;10.55;5.05;;;10.60;99.90;;;;;;10362250;28;20107;-59
2021/10/20 03:28:03;;;;;;;7.90;4.60;;;10.60;99.90;;;;;;10357921;28;20073;-59
2021/10/20 03:33:05;;;;;;;8.80;4.65;;;10.70;99.90;;;;;;10380657;28;20041;-59
2021/10/20 03:38:06;;;;;;;9.25;4.80;;;10.80;99.90;;;;;;10378330;28;20065;-59
2021/10/20 03:43:09;;;;;;;10.05;4.03;;;10.80;99.90;;;;;;10359687;28;20569;-59
2021/10/20 03:48:11;;;;;;;7.65;4.28;;;10.90;99.90;;;;;;10354992;28;20466;-59
2021/10/20 03:53:12;;;;;;;10.63;4.78;;;10.90;99.90;;;;;;10373718;28;20057;-59
2021/10/20 03:58:14;;;;;;;6.47;3.70;;;10.90;99.90;;;;;;10376968;28;20053;-60
2021/10/20 04:03:16;;;;;;;8.05;4.32;;;10.80;99.90;;;;;;10373073;28;20073;-59
2021/10/20 04:08:18;;;;;;;7.70;4.18;;;10.80;99.90;;;;;;10374415;28;20046;-59
2021/10/20 04:13:19;;;;;;;13.65;4.93;;;10.80;99.90;;;;;;10376367;28;20507;-58
2021/10/20 04:18:21;;;;;;;8.77;4.32;;;10.70;99.90;;;;;;10375068;28;20123;-59
2021/10/20 04:23:23;;;;;;;10.40;4.50;;;10.70;99.90;;;;;;10376874;28;20077;-59
2021/10/20 04:28:25;;;;;;;8.95;4.60;;;10.60;99.90;;;;;;10374628;28;20964;-58
2021/10/20 04:33:26;;;;;;;11.90;4.80;;;10.70;99.90;;;;;;10355444;28;20053;-58
2021/10/20 04:38:29;;;;;;;9.10;4.82;;;10.70;99.90;;;;;;10372494;28;20107;-59
2021/10/20 04:43:31;;;;;;;12.50;4.88;;;10.70;99.90;;;;;;10378619;28;20077;-59
2021/10/20 04:48:32;;;;;;;13.38;4.90;;;10.60;99.90;;;;;;10377142;28;20145;-59
2021/10/20 04:53:34;;;;;;;11.30;5.20;;;10.70;99.90;;;;;;10369538;28;20053;-59
2021/10/20 04:58:36;;;;;;;9.27;4.60;;;10.70;99.90;;;;;;10359505;28;20119;-59
2021/10/20 05:03:37;;;;;;;10.48;5.05;;;10.70;99.90;;;;;;10371407;28;20045;-59
2021/10/20 05:08:39;;;;;;;8.80;4.30;;;10.70;99.90;;;;;;10378132;28;20041;-59
2021/10/20 05:13:41;;;;;;;9.35;5.57;;;10.70;99.90;;;;;;10371495;28;20052;-59
2021/10/20 05:18:43;;;;;;;9.07;4.82;;;10.70;99.90;;;;;;10369819;28;20049;-58
2021/10/20 05:23:49;;;;;;;9.85;4.85;;;10.70;99.90;;;;;;10379166;28;20073;-59
2021/10/20 05:28:51;;;;;;;13.25;5.57;;;10.70;99.90;;;;;;10375802;28;20487;-59
2021/10/20 05:33:53;;;;;;;10.75;5.38;;;10.60;99.90;;;;;;10348721;28;20450;-59
2021/10/20 05:38:54;;;;;;;10.10;5.00;;;10.50;99.90;;;;;;10372530;28;20485;-59
2021/10/20 05:43:56;;;;;;;9.75;5.20;;;10.40;99.90;;;;;;10367442;28;20077;-59
2021/10/20 05:48:58;;;;;;;11.20;5.50;;;10.40;99.90;;;;;;10374429;28;20147;-59
2021/10/20 05:53:59;;;;;;;12.88;5.03;;;10.40;99.90;;;;;;10354646;28;20065;-61
2021/10/20 05:59:03;;;;;;;11.65;4.60;;;10.40;99.90;;;;;;10355746;28;20427;-62
2021/10/20 06:04:06;;;;;;;11.90;5.15;;;10.40;99.90;;;;;;10372187;28;20050;-62
2021/10/20 06:09:07;;;;;;;11.05;5.57;;;10.40;99.90;;;;;;10371289;28;20081;-62
2021/10/20 06:14:09;;;;;;;11.02;5.15;;;10.40;99.90;;;;;;10369394;28;20045;-62
2021/10/20 06:19:11;;;;;;;14.70;5.72;;;10.50;99.90;;;;;;10369316;28;20049;-62
2021/10/20 06:24:13;;;;;;;12.70;5.05;;;10.50;99.90;;;;;;10368458;28;20053;-62
2021/10/20 06:29:16;;;;;;;13.60;5.93;;;10.50;99.90;;;;;;10355290;28;20081;-62
2021/10/20 06:34:18;;;;;;;12.48;4.35;;;10.50;99.90;;;;;;10370423;28;20053;-62
2021/10/20 06:39:24;;;;;;;15.02;5.55;;;10.50;99.90;;;;;;10371989;28;20073;-62
2021/10/20 06:44:26;;;;;;;10.43;5.35;;;10.60;99.90;;;;;;10370309;28;20061;-62
2021/10/20 06:49:27;;;;;;;8.07;5.05;;;10.70;99.90;;;;;;10374582;28;20058;-62
2021/10/20 06:54:29;;;;;;;14.85;5.90;;;10.70;99.90;;;;;;10371014;28;20123;-62
2021/10/20 06:59:31;;;;;;;10.18;4.30;;;10.80;99.90;;;;;;10372984;28;20072;-62
2021/10/20 07:04:32;;;;;;;9.15;4.90;;;10.80;99.90;;;;;;10372881;28;20119;-62
2021/10/20 07:09:34;;;;;;;8.80;4.43;;;10.80;99.90;;;;;;10370150;28;20115;-63
2021/10/20 07:14:36;;;;;;;16.77;5.32;;;10.90;99.90;;;;;;10376241;28;20122;-63
2021/10/20 07:19:38;;;;;;;8.50;4.80;;;11.00;99.90;;;;;;10369258;28;20131;-62
2021/10/20 07:24:40;;;;;;;8.93;5.82;;;11.00;99.90;;;;;;10368574;28;20564;-63
2021/10/20 07:29:46;;;;;;;8.65;4.45;;;11.10;99.90;;;;;;10369829;28;20046;-62
2021/10/20 07:34:48;;;;;;;9.45;4.45;;;11.10;99.90;;;;;;10370456;28;20052;-62
2021/10/20 07:39:49;;;;;;;9.55;4.82;;;11.20;99.90;;;;;;10372615;28;20494;-63
2021/10/20 07:44:51;;;;;;;10.70;4.40;;;11.30;99.90;;;;;;10369899;28;20049;-62
2021/10/20 07:49:54;;;;;;;10.75;4.85;;;11.40;99.90;;;;;;10368985;28;20053;-62
2021/10/20 07:54:56;;;;;;;8.80;4.63;;;11.50;99.90;;;;;;10365654;28;20589;-62
2021/10/20 07:59:58;;;;;;;12.05;4.38;;;11.60;99.90;;;;;;10329232;28;20513;-62
2021/10/20 08:04:59;;;;;;;7.43;3.60;;;11.80;99.90;;;;;;10325870;28;20152;-62
2021/10/20 08:10:01;;;;;;;8.43;3.88;;;11.80;99.90;;;;;;10332506;28;20057;-63
2021/10/20 08:15:03;;;;;;;10.60;4.28;;;11.90;99.90;;;;;;10339119;28;20420;-62
2021/10/20 08:20:09;;;;;;;8.38;5.32;;;12.10;99.90;;;;;;10336447;28;20125;-63
2021/10/20 08:25:11;;;;;;;8.60;4.75;;;12.10;99.90;;;;;;10337019;28;20042;-62
2021/10/20 08:30:17;;;;;;;8.30;4.45;;;12.30;99.90;;;;;;10334760;28;20042;-62
2021/10/20 08:35:21;;;;;;;8.48;4.50;;;12.40;99.90;;;;;;10332622;28;20050;-63
2021/10/20 08:40:31;;;;;;;10.45;4.55;;;12.50;99.90;;;;;;10332432;28;20104;-62
2021/10/20 08:45:33;;;;;;;9.13;4.63;;;12.60;99.90;;;;;;10315396;28;20049;-62
2021/10/20 08:50:36;;;;;;;7.45;4.35;;;12.70;99.90;;;;;;10339228;28;20411;-62
2021/10/20 08:55:38;;;;;;;8.23;4.03;;;12.80;99.90;;;;;;10340368;28;20050;-63
2021/10/20 09:00:40;;;;;;;7.50;3.42;;;12.90;99.90;;;;;;10374211;28;20139;-63
2021/10/20 09:05:42;;;;;;;7.80;3.60;;;13.00;99.90;;;;;;10375068;28;20045;-63
2021/10/20 09:10:46;;;;;;;9.40;4.20;;;13.10;99.90;;;;;;10370796;28;20061;-63
2021/10/20 09:15:47;;;;;;;7.25;3.45;;;13.20;99.90;;;;;;10373159;28;20045;-63
2021/10/20 09:20:51;;;;;;;8.48;4.07;;;13.30;99.90;;;;;;10375740;28;20130;-62
2021/10/20 09:25:58;;;;;;;7.05;3.97;;;13.50;99.90;;;;;;10374054;28;20056;-63
2021/10/20 09:31:05;;;;;;;;;;;13.50;99.90;;;;;;10377683;28;20053;-63
2021/10/20 09:36:10;;;;;;;7.72;4.05;;;13.60;99.90;;;;;;10375200;28;20429;-62
2021/10/20 09:41:13;;;;;;;12.75;3.72;;;13.70;99.90;;;;;;10376874;28;20044;-62
2021/10/20 09:46:15;;;;;;;8.23;4.18;;;13.80;99.90;;;;;;10370797;28;20111;-62
2021/10/20 09:51:17;;;;;;;8.73;3.83;;;14.00;99.90;;;;;;10374468;28;20060;-62
2021/10/20 09:56:20;;;;;;;8.88;4.07;;;14.10;99.90;;;;;;10365522;28;20050;-62
2021/10/20 10:01:24;;;;;;;7.85;3.95;;;14.20;99.90;;;;;;10369354;28;20045;-62
2021/10/20 10:06:26;;;;;;;12.88;4.63;;;14.30;99.90;;;;;;10372137;28;20053;-62
2021/10/20 10:11:32;;;;;;;8.00;4.03;;;14.40;99.90;;;;;;10370619;28;20058;-63
2021/10/20 10:16:37;;;;;;;8.57;3.90;;;14.60;99.90;;;;;;10373151;28;20046;-63
2021/10/20 10:21:42;;;;;;;10.75;3.92;;;14.70;99.90;;;;;;10367504;28;20059;-62
2021/10/20 10:27:13;;;;;;;8.75;3.67;;;14.80;99.90;;;;;;10372894;28;20101;-62
2021/10/20 10:32:18;;;;;;;9.95;3.60;;;14.90;99.90;;;;;;10353504;28;20069;-62
2021/10/20 10:37:28;;;;;;;6.80;4.25;;;15.00;99.90;;;;;;10373133;28;20659;-62
2021/10/20 10:42:44;;;;;;;8.43;3.00;;;15.00;99.90;;;;;;10368789;28;20840;-62
2021/10/20 10:47:55;;;;;;;6.03;3.00;;;15.00;99.90;;;;;;10373325;28;20081;-62
2021/10/20 10:52:57;;;;;;;9.35;4.55;;;15.10;99.90;;;;;;10368784;28;20081;-62
2021/10/20 10:58:15;;;;;;;6.50;2.42;;;15.20;99.90;;;;;;10371322;28;20507;-62
2021/10/20 11:03:21;;;;;;;8.82;2.67;;;15.30;99.90;;;;;;10376173;28;20045;-62
2021/10/20 11:08:23;;;;;;;5.67;2.63;;;15.60;99.90;;;;;;10374205;28;20053;-63
2021/10/20 11:13:25;;;;;;;4.65;2.63;;;15.60;99.90;;;;;;10373887;28;20107;-62
2021/10/20 11:18:28;;;;;;;3.03;1.90;;;15.60;99.90;;;;;;10372442;28;20046;-62
2021/10/20 11:23:30;;;;;;;5.40;2.47;;;15.70;99.90;;;;;;10370592;28;20073;-60
2021/10/20 11:28:33;;;;;;;4.13;2.78;;;15.80;99.90;;;;;;10358306;28;20045;-61
2021/10/20 11:33:42;;;;;;;3.97;1.83;;;15.80;99.90;;;;;;10369861;28;20049;-61
2021/10/20 11:38:45;;;;;;;3.85;2.10;;;15.90;99.90;;;;;;10370387;28;20038;-61
2021/10/20 11:43:53;;;;;;;5.13;1.90;;;16.00;99.90;;;;;;10372813;28;20062;-60
2021/10/20 11:48:58;;;;;;;6.55;1.52;;;16.00;99.90;;;;;;10377706;28;20044;-61
2021/10/20 11:54:05;;;;;;;8.55;2.95;;;16.20;99.90;;;;;;10382803;28;20077;-61
2021/10/20 11:59:27;;;;;;;5.72;1.88;;;16.20;99.90;;;;;;10378967;28;20119;-61
2021/10/20 12:04:30;;;;;;;4.63;1.75;;;16.30;99.90;;;;;;10372746;28;20907;-61
2021/10/20 12:09:33;;;;;;;4.80;1.67;;;16.20;99.90;;;;;;10378079;28;20073;-61
2021/10/20 12:14:38;;;;;;;5.15;2.47;;;16.20;99.90;;;;;;10381067;28;20127;-60
2021/10/20 12:19:42;;;;;;;7.00;2.30;;;16.30;99.90;;;;;;10376774;28;20053;-61
2021/10/20 12:24:49;;;;;;;5.72;2.17;;;16.30;99.90;;;;;;10381369;28;20811;-61
2021/10/20 12:29:53;;;;;;;2.65;2.08;;;16.30;99.90;;;;;;10375284;28;20483;-61
2021/10/20 12:34:58;;;;;;;3.78;1.42;;;16.20;99.90;;;;;;10382011;28;20519;-60
2021/10/20 12:40:18;;;;;;;5.82;2.20;;;16.20;99.90;;;;;;10374898;28;20492;-60
2021/10/20 12:45:20;;;;;;;3.90;2.13;;;16.20;99.90;;;;;;10378566;28;20104;-61
2021/10/20 12:50:25;;;;;;;4.53;1.95;;;16.20;99.90;;;;;;10371537;28;20048;-61
2021/10/20 12:55:28;;;;;;;5.35;2.05;;;16.10;99.90;;;;;;10381595;28;20134;-61
2021/10/20 13:00:30;;;;;;;5.82;1.92;;;16.20;99.90;;;;;;10379927;28;20583;-60
2021/10/20 13:05:33;;;;;;;5.78;2.10;;;16.20;99.90;;;;;;10376756;28;20137;-60
2021/10/20 13:10:34;;;;;;;7.22;2.35;;;16.40;99.90;;;;;;10372631;28;20078;-60
2021/10/20 13:15:36;;;;;;;5.38;1.67;;;16.50;99.90;;;;;;10364685;28;20053;-60
2021/10/20 13:20:41;;;;;;;2.70;1.80;;;16.60;99.90;;;;;;10377830;28;20053;-60
2021/10/20 13:25:43;;;;;;;3.63;1.73;;;16.70;99.90;;;;;;10373347;28;20499;-61
2021/10/20 13:30:45;;;;;;;3.90;1.80;;;16.70;99.90;;;;;;10373592;28;20045;-61
2021/10/20 13:35:46;;;;;;;5.10;2.13;;;16.80;99.90;;;;;;10374651;28;20730;-61
2021/10/20 13:40:50;;;;;;;6.63;1.85;;;16.70;99.90;;;;;;10377062;28;20073;-61
2021/10/20 13:45:51;;;;;;;4.45;2.00;;;16.70;99.90;;;;;;10372099;28;20054;-61
2021/10/20 13:50:53;;;;;;;8.30;2.88;;;16.60;99.90;;;;;;10373345;28;20446;-60
2021/10/20 13:55:57;;;;;;;4.40;2.30;;;16.50;99.90;;;;;;10369651;28;20061;-60
2021/10/20 14:00:59;;;;;;;4.13;2.72;;;16.40;99.90;;;;;;10379050;28;20106;-60
2021/10/20 14:06:01;;;;;;;9.98;2.58;;;16.30;99.90;;;;;;10364317;28;20119;-61
2021/10/20 14:11:04;;;;;;;8.15;2.50;;;16.30;99.90;;;;;;10377316;28;20079;-61
2021/10/20 14:16:06;;;;;;;6.88;2.92;;;16.30;99.90;;;;;;10370999;28;20049;-61
2021/10/20 14:21:08;;;;;;;11.05;2.60;;;16.30;99.90;;;;;;10370843;28;20052;-61
2021/10/20 14:26:11;;;;;;;3.90;2.35;;;16.40;99.90;;;;;;10376945;28;20073;-61
2021/10/20 14:31:12;;;;;;;6.55;2.78;;;16.60;99.90;;;;;;10357488;28;20094;-60
2021/10/20 14:36:14;;;;;;;6.45;2.13;;;16.80;99.90;;;;;;10375873;28;20879;-61
2021/10/20 14:41:17;;;;;;;4.55;2.40;;;17.10;99.90;;;;;;10376668;28;20103;-61
2021/10/20 14:46:19;;;;;;;5.13;2.17;;;17.30;99.90;;;;;;10375665;28;20127;-62
2021/10/20 14:51:21;;;;;;;7.03;2.47;;;17.40;99.90;;;;;;10373675;28;20590;-61
2021/10/20 14:56:23;;;;;;;5.35;2.40;;;17.50;99.90;;;;;;10369594;28;20069;-62
2021/10/20 15:01:24;;;;;;;6.80;2.03;;;17.50;99.90;;;;;;10366779;28;22702;-62
2021/10/20 15:06:26;;;;;;;4.80;2.00;;;17.50;99.90;;;;;;10367887;28;20049;-62
2021/10/20 15:11:28;;;;;;;4.18;2.28;;;17.60;99.90;;;;;;10370857;28;20542;-62
2021/10/20 15:16:30;;;;;;;2.90;2.22;;;17.60;99.90;;;;;;10372078;28;20089;-61
2021/10/20 15:21:34;;;;;;;5.72;1.90;;;17.50;99.90;;;;;;10380260;28;20073;-61
2021/10/20 15:26:36;;;;;;;2.92;2.58;;;17.50;99.90;;;;;;10376985;28;20054;-61
2021/10/20 15:31:38;;;;;;;3.75;1.92;;;17.50;99.90;;;;;;10381507;28;20100;-61
2021/10/20 15:36:40;;;;;;;5.45;2.05;;;17.50;99.90;;;;;;10379612;28;20084;-61
2021/10/20 15:41:41;;;;;;;3.47;2.13;;;17.50;99.90;;;;;;10363458;28;20147;-61
2021/10/20 15:46:43;;;;;;;4.32;2.20;;;17.30;99.90;;;;;;10379884;28;20068;-61
2021/10/20 15:51:45;;;;;;;6.40;2.13;;;17.30;99.90;;;;;;10359654;28;20057;-61
2021/10/20 15:56:47;;;;;;;8.23;2.13;;;17.30;99.90;;;;;;10377703;28;20049;-61
2021/10/20 16:01:49;;;;;;;5.45;2.33;;;17.20;99.90;;;;;;10378105;28;20108;-61
2021/10/20 16:06:50;;;;;;;3.28;2.15;;;17.10;99.90;;;;;;10378910;28;20134;-61
2021/10/20 16:11:52;;;;;;;4.45;2.10;;;17.00;99.90;;;;;;10376698;28;20765;-61
2021/10/20 16:16:54;;;;;;;3.60;2.13;;;17.00;99.90;;;;;;10374565;28;20057;-61
2021/10/20 16:21:55;;;;;;;4.05;2.08;;;16.90;99.90;;;;;;10378305;28;20054;-61
2021/10/20 16:26:57;;;;;;;3.95;2.20;;;16.90;99.90;;;;;;10374391;28;20050;-61
2021/10/20 16:31:59;;;;;;;5.00;2.15;;;16.90;99.90;;;;;;10375672;28;20077;-62
2021/10/20 16:37:00;;;;;;;4.07;2.30;;;16.80;99.90;;;;;;10375671;28;20436;-61
2021/10/20 16:42:02;;;;;;;5.05;2.40;;;16.80;99.90;;;;;;10372398;28;20108;-61
2021/10/20 16:47:06;;;;;;;6.43;2.10;;;16.70;99.90;;;;;;10376782;28;20077;-62
2021/10/20 16:52:08;;;;;;;5.50;2.65;;;16.80;99.90;;;;;;10376658;28;20046;-62
2021/10/20 16:57:10;;;;;;;4.22;2.65;;;16.70;99.90;;;;;;10376975;28;20675;-59
2021/10/20 17:02:12;;;;;;;4.25;2.40;;;16.60;99.90;;;;;;10376406;28;20550;-59
2021/10/20 17:07:14;;;;;;;5.45;2.55;;;16.60;99.90;;;;;;10377197;28;20344;-59
2021/10/20 17:12:16;;;;;;;6.35;3.10;;;16.50;99.90;;;;;;10356334;28;20049;-59
2021/10/20 17:17:18;;;;;;;4.95;2.67;;;16.50;99.90;;;;;;10374237;28;20115;-59
2021/10/20 17:22:19;;;;;;;8.25;3.15;;;16.40;99.90;;;;;;10376034;28;20076;-59
2021/10/20 17:27:21;;;;;;;6.65;3.25;;;16.40;99.90;;;;;;10368523;28;20050;-60
2021/10/20 17:32:24;;;;;;;5.97;3.33;;;16.30;99.90;;;;;;10372435;28;20103;-60
2021/10/20 17:37:26;;;;;;;5.72;3.47;;;16.20;99.90;;;;;;10376047;28;20127;-59
2021/10/20 17:42:27;;;;;;;7.30;3.63;;;16.20;99.90;;;;;;10354754;28;20042;-59
2021/10/20 17:47:29;;;;;;;7.03;3.60;;;16.20;99.90;;;;;;10365458;28;20049;-59
2021/10/20 17:52:31;;;;;;;6.10;3.47;;;16.20;99.90;;;;;;10371861;28;20057;-59
2021/10/20 17:57:34;;;;;;;7.90;3.40;;;16.20;99.90;;;;;;10374290;28;20049;-59
2021/10/20 18:02:40;;;;;;;5.50;2.85;;;16.20;99.90;;;;;;10373082;28;20152;-59
2021/10/20 18:07:43;;;;;;;3.08;2.50;;;16.20;99.90;;;;;;10373974;28;20483;-59
2021/10/20 18:12:46;;;;;;;7.95;2.63;;;16.30;99.90;;;;;;10374600;28;20037;-59
2021/10/20 18:17:53;;;;;;;3.22;1.80;;;16.20;99.90;;;;;;10359920;28;20057;-59
2021/10/20 18:22:55;;;;;;;4.85;2.15;;;16.30;99.90;;;;;;10380460;28;20200;-59
2021/10/20 18:27:57;;;;;;;5.63;2.30;;;16.40;99.90;;;;;;10371824;28;20143;-59
2021/10/20 18:33:00;;;;;;;5.45;2.50;;;16.30;99.90;;;;;;10371127;28;20616;-59
2021/10/20 18:38:04;;;;;;;3.08;2.03;;;16.30;99.90;;;;;;10375854;28;20080;-60
2021/10/20 18:43:05;;;;;;;8.25;2.97;;;16.30;99.90;;;;;;10343786;28;20069;-59
2021/10/20 18:48:08;;;;;;;6.85;2.70;;;16.30;99.90;;;;;;10368266;28;20479;-60
2021/10/20 18:53:12;;;;;;;6.68;3.22;;;16.30;99.90;;;;;;10367932;28;20095;-59
2021/10/20 18:58:14;;;;;;;4.32;2.80;;;16.30;99.90;;;;;;10372155;28;20053;-59
2021/10/20 19:03:15;;;;;;;5.32;2.20;;;16.40;99.90;;;;;;10374504;28;20474;-59
2021/10/20 19:08:17;;;;;;;2.50;1.50;;;16.40;99.90;;;;;;10371246;28;20061;-59
2021/10/20 19:13:19;;;;;;;3.33;1.83;;;16.50;99.90;;;;;;10374446;28;20062;-59
2021/10/20 19:18:21;;;;;;;6.88;1.70;;;16.50;99.90;;;;;;10367853;28;20073;-59
2021/10/20 19:23:23;;;;;;;5.10;1.92;;;16.50;99.90;;;;;;10371960;28;20077;-59
2021/10/20 19:28:25;;;;;;;3.13;2.35;;;16.50;99.90;;;;;;10354847;28;20073;-59
2021/10/20 19:33:27;;;;;;;2.83;1.95;;;16.40;99.90;;;;;;10374186;28;20056;-59
2021/10/20 19:38:30;;;;;;;3.67;2.17;;;16.30;99.90;;;;;;10368801;28;20740;-60
2021/10/20 19:43:32;;;;;;;5.72;2.63;;;16.20;99.90;;;;;;10369121;28;20049;-59
2021/10/20 19:48:35;;;;;;;5.18;2.15;;;16.20;99.90;;;;;;10366424;28;20102;-59
2021/10/20 19:53:37;;;;;;;7.63;2.47;;;16.10;99.90;;;;;;10368348;28;20581;-59
2021/10/20 19:58:39;;;;;;;4.07;1.98;;;16.10;99.90;;;;;;10367224;28;20088;-59
2021/10/20 20:03:41;;;;;;;8.30;3.08;;;16.10;99.90;;;;;;10372892;28;20089;-59
2021/10/20 20:08:42;;;;;;;6.72;3.13;;;16.10;99.90;;;;;;10374552;28;20053;-59
2021/10/20 20:13:44;;;;;;;5.28;2.70;;;16.10;99.90;;;;;;10377977;28;20077;-59
2021/10/20 20:18:46;;;;;;;6.07;2.90;;;16.00;99.90;;;;;;10381943;28;20499;-60
2021/10/20 20:23:48;;;;;;;7.32;3.25;;;16.00;99.90;;;;;;10377001;28;20840;-59
2021/10/20 20:28:50;;;;;;;5.68;3.00;;;15.90;99.90;;;;;;10376796;28;20111;-59
2021/10/20 20:33:51;;;;;;;28.90;7.10;;;15.90;99.90;;;;;;10369460;28;20162;-59
2021/10/20 20:38:53;;;;;;;8.20;2.85;;;15.90;99.90;;;;;;10366129;28;20103;-59
2021/10/20 20:43:56;;;;;;;6.15;2.20;;;15.80;99.90;;;;;;10364131;28;20170;-59
2021/10/20 20:48:58;;;;;;;10.02;1.73;;;15.90;99.90;;;;;;10375740;28;20056;-58
2021/10/20 20:54:00;;;;;;;2.95;1.65;;;15.90;99.90;;;;;;10372015;28;20104;-59
2021/10/20 20:59:02;;;;;;;3.25;2.08;;;15.90;99.90;;;;;;10375563;28;20475;-60
2021/10/20 21:04:04;;;;;;;4.30;2.10;;;16.00;99.90;;;;;;10351860;28;20956;-60
2021/10/20 21:09:06;;;;;;;6.20;2.25;;;16.00;99.90;;;;;;10365326;28;20131;-60
2021/10/20 21:14:08;;;;;;;4.65;1.67;;;16.00;99.90;;;;;;10365395;28;20512;-60
2021/10/20 21:19:11;;;;;;;8.38;2.58;;;16.10;99.90;;;;;;10365775;28;20061;-60
2021/10/20 21:24:14;;;;;;;3.53;2.58;;;16.10;99.90;;;;;;10372719;28;20384;-60
2021/10/20 21:29:18;;;;;;;4.85;1.80;;;16.10;99.90;;;;;;10371606;28;20450;-60
2021/10/20 21:34:20;;;;;;;4.60;3.00;;;16.20;99.90;;;;;;10369589;28;20577;-59
2021/10/20 21:39:21;;;;;;;5.60;2.65;;;16.10;99.90;;;;;;10376344;28;20074;-60
2021/10/20 21:44:30;;;;;;;5.70;2.35;;;16.10;99.90;;;;;;10341221;28;20037;-60
2021/10/20 21:49:32;;;;;;;6.22;2.83;;;16.10;99.90;;;;;;10345689;28;20049;-60
2021/10/20 21:54:34;;;;;;;5.47;2.05;;;16.10;99.90;;;;;;10366374;28;20115;-59
2021/10/20 21:59:35;;;;;;;3.30;2.08;;;16.00;99.90;;;;;;10373105;28;20050;-60
2021/10/20 22:04:37;;;;;;;3.25;1.83;;;16.00;99.90;;;;;;10370975;28;20099;-59
2021/10/20 22:09:41;;;;;;;4.07;1.65;;;16.00;99.90;;;;;;10372915;28;20053;-60
2021/10/20 22:14:43;;;;;;;3.92;1.77;;;16.00;99.90;;;;;;10368334;28;20123;-60
2021/10/20 22:19:46;;;;;;;7.20;1.90;;;15.90;99.90;;;;;;10371610;28;20131;-60
2021/10/20 22:24:48;;;;;;;4.20;1.50;;;15.90;99.90;;;;;;10378212;28;20050;-60
2021/10/20 22:29:49;;;;;;;3.10;1.60;;;15.90;99.90;;;;;;10369418;28;20052;-60
2021/10/20 22:34:51;;;;;;;3.45;1.88;;;16.00;99.90;;;;;;10352372;28;20049;-60
2021/10/20 22:39:53;;;;;;;8.57;2.20;;;15.90;99.90;;;;;;10366434;28;20133;-60
2021/10/20 22:44:54;;;;;;;36.40;9.85;;;15.90;99.90;;;;;;10361317;28;20073;-59
2021/10/20 22:49:56;;;;;;;3.88;2.13;;;15.90;99.90;;;;;;10369013;28;20099;-60
2021/10/20 22:54:57;;;;;;;5.22;2.22;;;15.80;99.90;;;;;;10377968;28;20111;-59
2021/10/20 22:59:59;;;;;;;4.22;2.28;;;15.70;99.90;;;;;;10375615;28;20225;-60
2021/10/20 23:05:01;;;;;;;5.57;2.15;;;15.60;99.90;;;;;;10373380;28;20049;-60
2021/10/20 23:10:04;;;;;;;4.55;2.03;;;15.50;99.90;;;;;;10371668;28;20088;-60
2021/10/20 23:15:06;;;;;;;5.97;2.00;;;15.50;99.90;;;;;;10375234;28;20648;-60
2021/10/20 23:20:09;;;;;;;3.30;2.33;;;15.50;99.90;;;;;;10368796;28;20042;-60
2021/10/20 23:25:11;;;;;;;3.97;1.80;;;15.40;99.90;;;;;;10367933;28;20057;-60
2021/10/20 23:30:13;;;;;;;3.25;1.23;;;15.40;99.90;;;;;;10361696;28;22748;-59
2021/10/20 23:35:15;;;;;;;3.55;1.13;;;15.40;99.90;;;;;;10372648;28;20065;-60
2021/10/20 23:40:16;;;;;;;2.75;1.10;;;15.40;99.90;;;;;;10375456;28;20111;-59
2021/10/20 23:45:18;;;;;;;3.33;0.80;;;15.30;99.90;;;;;;10374500;28;20081;-59
2021/10/20 23:50:19;;;;;;;1.77;1.00;;;15.30;99.90;;;;;;10379758;28;20133;-59
2021/10/20 23:55:21;;;;;;;3.65;1.38;;;15.30;99.90;;;;;;10381120;28;20119;-59
